Time;durP1;ratioP1;P1;durP2;ratioP2;P2;SDS_P1;SDS_P2;PMS_P1;PMS_P2;Temp;Humidity;BMP_temperature;BMP_pressure;BME280_temperature;BME280_humidity;BME280_pressure;Samples;Min_cycle;Max_cycle;Signal;HPM_P1;HPM_P2
2023/03/29 00:02:23;;;;;;;;;;;;;;;;;;;;;
2023/03/29 00:05:48;;;;;;;;;;;;;;;-4.58;65.63;100911.63;134128;1297;23226;-80
2023/03/29 00:09:09;;;;;;;;;;;;;;;-4.61;65.86;100912.08;134126;1297;22811;-79
2023/03/29 00:12:16;;;;;;;;;;;;;;;-4.61;65.82;100911.55;134166;1297;24629;-79
2023/03/29 00:15:17;;;;;;;;;;;;;;;-4.60;65.71;100902.88;134150;1297;22441;-78
2023/03/29 00:18:19;;;;;;;;;;;;;;;-4.61;65.77;100899.64;134146;1297;22467;-79
2023/03/29 00:21:27;;;;;;;;;;;;;;;-4.69;65.74;100902.83;134149;1297;23321;-79
2023/03/29 00:24:52;;;;;;;;;;;;;;;-4.71;65.79;100900.66;134133;1298;23689;-79
2023/03/29 00:28:06;;;;;;;;;;;;;;;-4.70;65.93;100899.41;134154;1298;22434;-79
2023/03/29 00:31:11;;;;;;;;;;;;;;;-4.68;66.09;100899.70;134146;1305;22457;-79
2023/03/29 00:34:14;;;;;;;;;;;;;;;-4.69;66.04;100895.93;134120;1297;22459;-79
2023/03/29 00:37:19;;;;;;;;;;;;;;;-4.70;66.06;100897.86;133973;1297;22455;-81
2023/03/29 00:41:15;;;;;;;;;;;;;;;;;;;;;
2023/03/29 00:45:08;;;;;;;;;;;;;;;;;;;;;
2023/03/29 00:48:14;;;;;;;;;;;;;;;-4.79;66.79;100889.86;134334;1297;23168;-79
2023/03/29 00:51:17;;;;;;;;;;;;;;;-4.82;66.88;100892.91;134292;1297;22532;-81
2023/03/29 00:54:18;;;;;;;;;;;;;;;-4.87;67.17;100894.27;134242;1296;22484;-80
2023/03/29 00:57:22;;;;;;;;;;;;;;;-4.93;67.27;100891.70;134080;1298;25092;-78
2023/03/29 01:00:48;;;;;;;;;;;;;;;;;;;;;
2023/03/29 01:04:06;;;;;;;;;;;;;;;;;;;;;
2023/03/29 01:07:20;;;;;;;;;;;;;;;-5.13;67.25;100883.38;134103;1298;23004;-78
2023/03/29 01:10:41;;;;;;;;;;;;;;;;;;;;;
2023/03/29 01:14:03;;;;;;;;;;;;;;;-5.26;67.43;100873.95;134306;1297;22423;-78
2023/03/29 01:17:13;;;;;;;;;;;;;;;-5.28;67.62;100867.98;134085;1296;23514;-79
2023/03/29 01:21:03;;;;;;;;;;;;;;;;;;;;;
2023/03/29 01:24:32;;;;;;;;;;;;;;;-5.23;67.78;100866.95;134297;1297;22450;-78
2023/03/29 01:27:59;;;;;;;;;;;;;;;;;;;;;
2023/03/29 01:31:34;;;;;;;;;;;;;;;;;;;;;
2023/03/29 01:35:01;;;;;;;;;;;;;;;-5.31;67.79;100858.59;134323;1296;22452;-78
2023/03/29 01:38:15;;;;;;;;;;;;;;;-5.36;68.23;100853.58;134211;1296;22608;-80
2023/03/29 01:41:27;;;;;;;;;;;;;;;;;;;;;
2023/03/29 01:45:02;;;;;;;;;;;;;;;;;;;;;
2023/03/29 01:48:36;;;;;;;;;;;;;;;;;;;;;
2023/03/29 01:52:03;;;;;;;;;;;;;;;;;;;;;
2023/03/29 01:55:29;;;;;;;;;;;;;;;-5.31;68.62;100854.11;134153;1298;22573;-79
2023/03/29 01:58:43;;;;;;;;;;;;;;;-5.33;68.44;100857.44;133866;1297;23429;-78
2023/03/29 02:02:47;;;;;;;;;;;;;;;-5.33;68.40;100853.65;134005;1297;23247;-79
2023/03/29 02:05:41;;;;;;;;;;;;;;;-5.34;68.50;100851.27;134080;1297;22452;-86
2023/03/29 02:08:55;;;;;;;;;;;;;;;-5.39;68.66;100846.05;133857;1300;22516;-79
2023/03/29 02:12:25;;;;;;;;;;;;;;;-5.49;68.83;100843.45;134158;1297;22549;-82
2023/03/29 02:15:50;;;;;;;;;;;;;;;-5.60;69.25;100842.91;134163;1297;23199;-84
2023/03/29 02:19:05;;;;;;;;;;;;;;;;;;;;;
2023/03/29 02:23:10;;;;;;;;;;;;;;;-5.79;69.46;100841.75;134068;1297;22490;-79
2023/03/29 02:26:28;;;;;;;;;;;;;;;-5.89;69.55;100845.16;134155;1298;22464;-83
2023/03/29 02:29:41;;;;;;;;;;;;;;;-5.93;69.60;100848.20;133850;1304;23103;-80
2023/03/29 02:33:01;;;;;;;;;;;;;;;-5.93;69.84;100850.98;132066;1298;2810259;-78
2023/03/29 02:36:58;;;;;;;;;;;;;;;;;;;;;
2023/03/29 02:40:14;;;;;;;;;;;;;;;-5.83;69.74;100841.53;133570;1303;22485;-78
2023/03/29 02:43:31;;;;;;;;;;;;;;;;;;;;;
2023/03/29 02:46:36;;;;;;;;;;;;;;;-5.76;69.76;100834.61;133548;1302;22454;-78
2023/03/29 02:49:39;;;;;;;;;;;;;;;-5.77;69.84;100834.63;133606;1302;22468;-79
2023/03/29 02:52:57;;;;;;;;;;;;;;;;;;;;;
2023/03/29 02:57:09;;;;;;;;;;;;;;;-5.86;70.13;100831.10;133474;1302;22497;-78
2023/03/29 03:00:10;;;;;;;;;;;;;;;-5.92;70.38;100827.83;133452;1302;22516;-79
2023/03/29 03:03:52;;;;;;;;;;;;;;;-5.92;70.66;100825.92;132995;1306;22470;-79
2023/03/29 03:07:01;;;;;;;;;;;;;;;-5.90;70.66;100821.05;132993;1306;22486;-79
2023/03/29 03:10:43;;;;;;;;;;;;;;;-5.90;70.72;100820.71;133068;1306;22460;-81
2023/03/29 03:13:51;;;;;;;;;;;;;;;-5.93;71.18;100817.71;133228;1304;22495;-79
2023/03/29 03:17:04;;;;;;;;;;;;;;;-5.93;71.02;100814.98;133342;1303;22513;-79
2023/03/29 03:20:21;;;;;;;;;;;;;;;-5.89;71.05;100812.05;133328;1306;22502;-79
2023/03/29 03:23:27;;;;;;;;;;;;;;;-5.82;70.96;100810.15;133387;1303;22557;-86
2023/03/29 03:26:31;;;;;;;;;;;;;;;-5.80;70.91;100807.17;133304;1306;22439;-81
2023/03/29 03:29:35;;;;;;;;;;;;;;;-5.77;70.95;100802.23;133384;1306;22443;-81
2023/03/29 03:33:18;;;;;;;;;;;;;;;-5.71;70.99;100796.53;132958;1305;23342;-81
2023/03/29 03:36:30;;;;;;;;;;;;;;;-5.70;71.06;100795.14;133674;1300;22492;-79
2023/03/29 03:40:38;;;;;;;;;;;;;;;-5.72;71.26;100787.25;133700;1300;22432;-82
2023/03/29 03:43:32;;;;;;;;;;;;;;;;;;;;;
2023/03/29 03:47:14;;;;;;;;;;;;;;;;;;;;;
2023/03/29 03:51:33;;;;;;;;;;;;;;;-5.68;71.57;100787.33;133683;1300;22470;-80
2023/03/29 03:54:45;;;;;;;;;;;;;;;-5.75;71.65;100777.34;133650;1300;22496;-79
2023/03/29 03:58:46;;;;;;;;;;;;;;;;;;;;;
2023/03/29 04:02:07;;;;;;;;;;;;;;;-5.85;71.85;100770.75;133266;1303;22502;-78
2023/03/29 04:05:22;;;;;;;;;;;;;;;-5.88;72.03;100769.30;133678;1301;23294;-78
2023/03/29 04:09:18;;;;;;;;;;;;;;;;;;;;;
2023/03/29 04:13:06;;;;;;;;;;;;;;;-5.93;71.95;100774.33;133208;1304;22497;-78
2023/03/29 04:16:27;;;;;;;;;;;;;;;-6.00;72.07;100775.55;133315;1303;22473;-78
2023/03/29 04:19:28;;;;;;;;;;;;;;;-6.03;72.09;100774.95;133227;1306;22481;-83
2023/03/29 04:22:32;;;;;;;;;;;;;;;-6.05;72.24;100774.85;133131;1304;23345;-78
2023/03/29 04:25:34;;;;;;;;;;;;;;;-6.05;72.29;100767.96;133249;1303;22554;-78
2023/03/29 04:28:55;;;;;;;;;;;;;;;-6.09;72.34;100769.13;133437;1303;22453;-78
2023/03/29 04:32:51;;;;;;;;;;;;;;;;;;;;;
2023/03/29 04:36:01;;;;;;;;;;;;;;;-6.13;72.77;100767.15;133387;1303;22468;-78
2023/03/29 04:39:10;;;;;;;;;;;;;;;-6.11;72.99;100768.98;133336;1303;22498;-82
2023/03/29 04:42:44;;;;;;;;;;;;;;;-6.07;73.15;100762.49;133045;1306;23256;-81
2023/03/29 04:45:52;;;;;;;;;;;;;;;-6.03;73.03;100758.95;133116;1304;22518;-81
2023/03/29 04:49:19;;;;;;;;;;;;;;;-5.94;73.14;100759.16;133211;1304;23174;-80
2023/03/29 04:52:26;;;;;;;;;;;;;;;-5.83;72.99;100756.59;133182;1304;22519;-78
2023/03/29 04:55:30;;;;;;;;;;;;;;;-5.74;73.01;100755.95;133142;1303;22484;-78
2023/03/29 04:58:38;;;;;;;;;;;;;;;-5.63;73.01;100754.91;133248;1306;22448;-79
2023/03/29 05:02:08;;;;;;;;;;;;;;;;;;;;;
2023/03/29 05:05:36;;;;;;;;;;;;;;;-5.28;73.16;100757.43;133253;1303;22527;-82
2023/03/29 05:09:34;;;;;;;;;;;;;;;;;;;;;
2023/03/29 05:13:06;;;;;;;;;;;;;;;;;;;;;
2023/03/29 05:16:22;;;;;;;;;;;;;;;-4.57;73.33;100749.10;133995;1298;22609;-77
2023/03/29 05:19:40;;;;;;;;;;;;;;;-4.29;73.42;100751.20;134138;1298;22430;-80
2023/03/29 05:22:47;;;;;;;;;;;;;;;-3.93;73.55;100748.98;133894;1298;22441;-80
2023/03/29 05:26:21;;;;;;;;;;;;;;;;;;;;;
2023/03/29 05:29:31;;;;;;;;;;;;;;;-2.42;73.36;100750.29;134132;1298;22577;-79
2023/03/29 05:32:53;;;;;;;;;;;;;;;-1.58;72.99;100746.58;134103;1297;22609;-79
2023/03/29 05:36:02;;;;;;;;;;;;;;;-0.99;72.13;100747.15;133932;1298;22635;-79
2023/03/29 05:39:24;;;;;;;;;;;;;;;-0.72;71.34;100739.85;134132;1298;22509;-81
2023/03/29 05:42:28;;;;;;;;;;;;;;;-0.47;70.94;100739.61;134065;1302;22489;-79
2023/03/29 05:45:37;;;;;;;;;;;;;;;-0.11;70.63;100738.71;133890;1302;22470;-79
2023/03/29 05:48:39;;;;;;;;;;;;;;;0.19;70.31;100736.53;133921;1297;22472;-83
2023/03/29 05:51:46;;;;;;;;;;;;;;;0.49;69.88;100736.96;134024;1298;23302;-82
2023/03/29 05:54:50;;;;;;;;;;;;;;;0.86;69.97;100730.97;134127;1298;22468;-84
2023/03/29 05:57:51;;;;;;;;;;;;;;;1.23;69.26;100731.38;133912;1297;22457;-78
2023/03/29 06:01:39;;;;;;;;;;;;;;;1.61;68.72;100728.06;133889;1298;22453;-78
2023/03/29 06:04:50;;;;;;;;;;;;;;;1.84;67.99;100722.83;133443;1302;22451;-78
2023/03/29 06:08:11;;;;;;;;;;;;;;;1.93;67.53;100726.77;133421;1303;23364;-78
2023/03/29 06:11:31;;;;;;;;;;;;;;;2.28;67.29;100730.67;133607;1302;22460;-78
2023/03/29 06:14:43;;;;;;;;;;;;;;;2.63;66.89;100721.39;133597;1301;22451;-79
2023/03/29 06:18:02;;;;;;;;;;;;;;;2.97;66.68;100720.37;133422;1304;23104;-78
2023/03/29 06:21:08;;;;;;;;;;;;;;;3.42;65.82;100721.65;133352;1301;22547;-74
2023/03/29 06:24:11;;;;;;;;;;;;;;;3.78;64.82;100723.89;133354;1297;22538;-79
2023/03/29 06:27:24;;;;;;;;;;;;;;;4.13;64.29;100721.05;133634;1300;23225;-79
2023/03/29 06:30:48;;;;;;;;;;;;;;;4.36;63.06;100720.79;133422;1304;22487;-79
2023/03/29 06:33:51;;;;;;;;;;;;;;;4.73;63.08;100717.84;133418;1303;23345;-79
2023/03/29 06:37:07;;;;;;;;;;;;;;;5.08;62.74;100713.83;133908;1300;22462;-83
2023/03/29 06:40:23;;;;;;;;;;;;;;;;;;;;;
2023/03/29 06:43:35;;;;;;;;;;;;;;;;;;;;;
2023/03/29 06:47:03;;;;;;;;;;;;;;;6.51;60.06;100705.73;134058;1298;23636;-78
2023/03/29 06:50:25;;;;;;;;;;;;;;;6.68;58.91;100705.34;134018;1299;22537;-80
2023/03/29 06:54:01;;;;;;;;;;;;;;;6.85;58.34;100705.37;133465;1302;23286;-79
2023/03/29 06:57:35;;;;;;;;;;;;;;;7.21;58.52;100708.09;133151;1305;22487;-79
2023/03/29 07:00:38;;;;;;;;;;;;;;;7.58;57.87;100703.91;133242;1304;23215;-79
2023/03/29 07:03:44;;;;;;;;;;;;;;;7.41;56.24;100704.30;133234;1304;22574;-80
2023/03/29 07:07:00;;;;;;;;;;;;;;;;;;;;;
2023/03/29 07:10:15;;;;;;;;;;;;;;;6.91;55.74;100704.83;133235;1305;22664;-79
2023/03/29 07:13:47;;;;;;;;;;;;;;;6.46;55.34;100707.87;132811;1310;22486;-80
2023/03/29 07:17:00;;;;;;;;;;;;;;;6.30;55.49;100709.48;133380;1303;22475;-79
2023/03/29 07:20:21;;;;;;;;;;;;;;;6.47;55.43;100704.30;133280;1305;22524;-80
2023/03/29 07:23:34;;;;;;;;;;;;;;;6.41;54.65;100697.88;133335;1305;22468;-79
2023/03/29 07:26:38;;;;;;;;;;;;;;;6.27;54.49;100704.46;133809;1302;23235;-80
2023/03/29 07:29:55;;;;;;;;;;;;;;;6.07;53.46;100700.80;134137;1297;22435;-80
2023/03/29 07:32:57;;;;;;;;;;;;;;;6.30;54.28;100702.51;133733;1298;22440;-81
2023/03/29 07:36:13;;;;;;;;;;;;;;;6.86;54.05;100696.76;133738;1298;23551;-83
2023/03/29 07:39:14;;;;;;;;;;;;;;;7.09;52.81;100697.86;133984;1298;22481;-79
2023/03/29 07:42:29;;;;;;;;;;;;;;;7.16;52.39;100694.65;134093;1298;22538;-80
2023/03/29 07:45:35;;;;;;;;;;;;;;;7.04;52.30;100688.80;134074;1297;22534;-80
2023/03/29 07:48:45;;;;;;;;;;;;;;;7.02;52.28;100684.20;134017;1298;23281;-80
2023/03/29 07:51:57;;;;;;;;;;;;;;;7.08;51.98;100679.80;133927;1298;22453;-82
2023/03/29 07:54:58;;;;;;;;;;;;;;;7.06;51.62;100678.95;133917;1299;22543;-83
2023/03/29 07:58:17;;;;;;;;;;;;;;;7.40;52.57;100681.00;134111;1298;24976;-82
2023/03/29 08:01:20;;;;;;;;;;;;;;;7.55;49.89;100680.73;134095;1298;23272;-80
2023/03/29 08:04:52;;;;;;;;;;;;;;;7.17;50.39;100683.85;133930;1298;22460;-81
2023/03/29 08:08:12;;;;;;;;;;;;;;;6.98;50.39;100682.63;134090;1297;22544;-80
2023/03/29 08:11:25;;;;;;;;;;;;;;;6.92;50.60;100678.75;133999;1298;22491;-81
2023/03/29 08:14:58;;;;;;;;;;;;;;;7.27;50.35;100673.31;134030;1298;22520;-81
2023/03/29 08:18:09;;;;;;;;;;;;;;;7.52;50.31;100673.41;133941;1300;22423;-81
2023/03/29 08:21:13;;;;;;;;;;;;;;;7.71;49.61;100673.77;134068;1298;22436;-80
2023/03/29 08:24:19;;;;;;;;;;;;;;;7.78;49.75;100671.64;134027;1298;22448;-80
2023/03/29 08:27:28;;;;;;;;;;;;;;;8.09;50.02;100671.77;134085;1297;22453;-81
2023/03/29 08:30:29;;;;;;;;;;;;;;;8.50;48.06;100670.66;134046;1298;22466;-81
2023/03/29 08:33:41;;;;;;;;;;;;;;;8.58;48.10;100667.32;134043;1298;22443;-81
2023/03/29 08:37:24;;;;;;;;;;;;;;;;;;;;;
2023/03/29 08:41:02;;;;;;;;;;;;;;;;;;;;;
2023/03/29 08:44:10;;;;;;;;;;;;;;;8.49;46.43;100652.15;133867;1298;23256;-81
2023/03/29 08:47:43;;;;;;;;;;;;;;;8.42;47.37;100652.75;134026;1297;22476;-82
2023/03/29 08:50:53;;;;;;;;;;;;;;;8.49;47.80;100654.05;133814;1297;22489;-82
2023/03/29 08:54:04;;;;;;;;;;;;;;;8.48;47.71;100648.81;134101;1298;22464;-82
2023/03/29 08:57:44;;;;;;;;;;;;;;;8.38;47.15;100648.02;134135;1305;22444;-82
2023/03/29 09:00:50;;;;;;;;;;;;;;;8.04;46.57;100648.04;133908;1300;22489;-82
2023/03/29 09:04:20;;;;;;;;;;;;;;;;;;;;;
2023/03/29 09:07:44;;;;;;;;;;;;;;;8.45;47.45;100638.72;134132;1298;22430;-82
2023/03/29 09:11:08;;;;;;;;;;;;;;;8.95;47.40;100638.71;133828;1298;22572;-82
2023/03/29 09:14:24;;;;;;;;;;;;;;;9.28;46.40;100643.52;133949;1297;23189;-83
2023/03/29 09:17:34;;;;;;;;;;;;;;;9.36;45.55;100642.17;133896;1297;22546;-83
2023/03/29 09:20:38;;;;;;;;;;;;;;;9.44;46.32;100636.52;133768;1304;23210;-82
2023/03/29 09:24:14;;;;;;;;;;;;;;;9.79;46.22;100637.78;134100;1290;22444;-82
2023/03/29 09:27:46;;;;;;;;;;;;;;;10.04;45.78;100631.25;134075;1297;23341;-82
2023/03/29 09:31:09;;;;;;;;;;;;;;;10.35;45.93;100626.27;134060;1297;23245;-82
2023/03/29 09:34:17;;;;;;;;;;;;;;;10.28;44.64;100626.25;134086;1301;23332;-83
2023/03/29 09:37:38;;;;;;;;;;;;;;;9.91;44.47;100625.46;134210;1297;22443;-84
2023/03/29 09:40:48;;;;;;;;;;;;;;;9.77;45.31;100623.29;134062;1297;22444;-83
2023/03/29 09:44:12;;;;;;;;;;;;;;;9.90;45.18;100620.99;134126;1298;22486;-83
2023/03/29 09:47:19;;;;;;;;;;;;;;;10.04;45.10;100616.96;134057;1299;22917;-83
2023/03/29 09:51:22;;;;;;;;;;;;;;;;;;;;;
2023/03/29 09:54:23;;;;;;;;;;;;;;;10.18;44.52;100614.50;133709;1303;22465;-83
2023/03/29 09:58:12;;;;;;;;;;;;;;;9.99;44.26;100608.09;133774;1297;22480;-84
2023/03/29 10:01:36;;;;;;;;;;;;;;;9.65;43.55;100605.42;134310;1297;22484;-82
2023/03/29 10:04:54;;;;;;;;;;;;;;;;;;;;;
2023/03/29 10:08:33;;;;;;;;;;;;;;;9.47;44.34;100600.60;134312;1297;22438;-83
2023/03/29 10:11:39;;;;;;;;;;;;;;;9.54;44.38;100595.31;133969;1298;23195;-82
2023/03/29 10:14:42;;;;;;;;;;;;;;;9.48;43.75;100589.41;134345;1297;23279;-84
2023/03/29 10:17:57;;;;;;;;;;;;;;;;;;;;;
2023/03/29 10:21:20;;;;;;;;;;;;;;;;;;;;;
2023/03/29 10:24:31;;;;;;;;;;;;;;;9.93;44.91;100579.69;134294;1297;24567;-83
2023/03/29 10:27:43;;;;;;;;;;;;;;;10.09;44.25;100573.34;134298;1297;22467;-83
2023/03/29 10:30:46;;;;;;;;;;;;;;;10.14;44.18;100571.58;134289;1295;22484;-83
2023/03/29 10:33:56;;;;;;;;;;;;;;;10.28;43.90;100564.16;134327;1298;22505;-83
2023/03/29 10:37:22;;;;;;;;;;;;;;;;;;;;;
2023/03/29 10:40:51;;;;;;;;;;;;;;;10.61;43.56;100558.96;134239;1297;22483;-82
2023/03/29 10:44:23;;;;;;;;;;;;;;;;;;;;;
2023/03/29 10:47:37;;;;;;;;;;;;;;;10.30;43.49;100547.77;134296;1296;22477;-83
2023/03/29 10:50:49;;;;;;;;;;;;;;;10.53;43.57;100545.22;134349;1295;23125;-83
2023/03/29 10:54:02;;;;;;;;;;;;;;;10.68;42.72;100536.27;134255;1297;22815;-84
2023/03/29 10:57:06;;;;;;;;;;;;;;;10.56;41.67;100533.23;134327;1297;22475;-82
2023/03/29 11:00:21;;;;;;;;;;;;;;;10.45;42.18;100530.27;134317;1298;23415;-83
2023/03/29 11:03:57;;;;;;;;;;;;;;;10.36;42.65;100516.45;134344;1296;22503;-84
2023/03/29 11:07:24;;;;;;;;;;;;;;;10.23;42.05;100516.60;133913;1298;23182;-84
2023/03/29 11:10:45;;;;;;;;;;;;;;;9.93;42.06;100515.50;134174;1295;22574;-83
2023/03/29 11:13:45;;;;;;;;;;;;;;;9.92;42.74;100506.41;134352;1297;22505;-83
2023/03/29 11:17:00;;;;;;;;;;;;;;;9.97;43.12;100505.80;134358;1297;23249;-83
2023/03/29 11:20:36;;;;;;;;;;;;;;;10.03;43.45;100506.23;134242;1300;23230;-82
2023/03/29 11:23:42;;;;;;;;;;;;;;;10.22;43.71;100502.88;133154;1296;22522;-83
2023/03/29 11:27:09;;;;;;;;;;;;;;;10.44;43.61;100499.97;134374;1298;23213;-83
2023/03/29 11:30:16;;;;;;;;;;;;;;;10.48;44.00;100495.82;133996;1297;22458;-83
2023/03/29 11:33:17;;;;;;;;;;;;;;;10.55;43.64;100491.60;134344;1292;22465;-85
2023/03/29 11:36:21;;;;;;;;;;;;;;;10.60;43.37;100491.58;134352;1297;23231;-84
2023/03/29 11:39:29;;;;;;;;;;;;;;;10.70;43.73;100489.33;134348;1298;22410;-84
2023/03/29 11:42:36;;;;;;;;;;;;;;;10.81;43.68;100485.35;134356;1295;25271;-84
2023/03/29 11:45:44;;;;;;;;;;;;;;;10.87;43.79;100475.52;134198;1296;22481;-84
2023/03/29 11:48:58;;;;;;;;;;;;;;;10.91;43.44;100471.59;134155;1298;22476;-83
2023/03/29 11:52:03;;;;;;;;;;;;;;;10.82;42.73;100471.80;134140;1297;22448;-84
2023/03/29 11:55:16;;;;;;;;;;;;;;;10.76;42.77;100465.89;134181;1297;22466;-84
2023/03/29 11:58:21;;;;;;;;;;;;;;;10.75;43.19;100467.35;134174;1297;22429;-84
2023/03/29 12:01:29;;;;;;;;;;;;;;;10.82;43.35;100459.26;134062;1298;23866;-84
2023/03/29 12:04:39;;;;;;;;;;;;;;;10.84;43.24;100458.89;134152;1297;22431;-86
2023/03/29 12:08:04;;;;;;;;;;;;;;;10.90;43.29;100455.27;134136;1297;23252;-84
2023/03/29 12:11:18;;;;;;;;;;;;;;;11.02;43.54;100441.96;134030;1296;23341;-84
2023/03/29 12:14:41;;;;;;;;;;;;;;;11.04;42.71;100438.77;134144;1297;22504;-84
2023/03/29 12:18:05;;;;;;;;;;;;;;;10.96;42.91;100429.99;134196;1297;22462;-84
2023/03/29 12:21:25;;;;;;;;;;;;;;;11.10;43.37;100422.34;133839;1300;23361;-84
2023/03/29 12:24:40;;;;;;;;;;;;;;;11.27;42.40;100423.22;133899;1299;22532;-84
2023/03/29 12:27:51;;;;;;;;;;;;;;;11.31;42.42;100419.41;133864;1300;23201;-83
2023/03/29 12:31:02;;;;;;;;;;;;;;;11.40;41.56;100411.20;133802;1300;23117;-84
2023/03/29 12:34:32;;;;;;;;;;;;;;;11.41;42.28;100403.95;133882;1298;22471;-83
2023/03/29 12:38:07;;;;;;;;;;;;;;;11.52;42.37;100403.33;133872;1300;22474;-84
2023/03/29 12:41:57;;;;;;;;;;;;;;;11.45;41.95;100398.23;133589;1300;24809;-83
2023/03/29 12:46:03;;;;;;;;;;;;;;;11.31;41.81;100398.48;133672;1298;22437;-84
2023/03/29 12:49:11;;;;;;;;;;;;;;;11.33;43.12;100384.11;133911;1298;22483;-84
2023/03/29 12:52:26;;;;;;;;;;;;;;;11.49;42.68;100384.21;134238;1297;23125;-84
2023/03/29 12:55:36;;;;;;;;;;;;;;;11.57;41.92;100381.94;134198;1298;22527;-84
2023/03/29 12:58:41;;;;;;;;;;;;;;;11.43;41.52;100381.50;134355;1297;22458;-84
2023/03/29 13:01:56;;;;;;;;;;;;;;;11.41;41.76;100379.57;134377;1296;22574;-81
2023/03/29 13:05:00;;;;;;;;;;;;;;;11.39;41.79;100377.98;134203;1298;22477;-86
2023/03/29 13:08:22;;;;;;;;;;;;;;;11.29;42.05;100377.31;134186;1297;22630;-86
2023/03/29 13:11:54;;;;;;;;;;;;;;;11.13;42.20;100370.11;134209;1297;22510;-85
2023/03/29 13:15:21;;;;;;;;;;;;;;;11.23;42.16;100359.70;134299;1297;23221;-87
2023/03/29 13:18:32;;;;;;;;;;;;;;;11.21;42.14;100361.63;134090;1292;22490;-83
2023/03/29 13:21:33;;;;;;;;;;;;;;;11.19;42.39;100357.73;134262;1296;22752;-81
2023/03/29 13:25:00;;;;;;;;;;;;;;;11.22;42.39;100351.46;134291;1297;22442;-81
2023/03/29 13:28:11;;;;;;;;;;;;;;;11.33;42.54;100345.36;134357;1296;22481;-80
2023/03/29 13:31:21;;;;;;;;;;;;;;;11.41;42.31;100335.42;134081;1301;22528;-81
2023/03/29 13:34:40;;;;;;;;;;;;;;;11.41;42.07;100339.65;134367;1294;22431;-82
2023/03/29 13:37:41;;;;;;;;;;;;;;;11.29;41.72;100333.91;134350;1296;22462;-81
2023/03/29 13:40:43;;;;;;;;;;;;;;;11.22;41.48;100330.18;134319;1297;24218;-82
2023/03/29 13:43:52;;;;;;;;;;;;;;;11.19;41.35;100323.81;134136;1297;22466;-81
2023/03/29 13:47:01;;;;;;;;;;;;;;;11.02;40.98;100324.73;134357;1297;22459;-82
2023/03/29 13:50:11;;;;;;;;;;;;;;;10.91;41.18;100329.10;134308;1298;22541;-81
2023/03/29 13:53:19;;;;;;;;;;;;;;;10.98;41.47;100325.19;134313;1296;23032;-81
2023/03/29 13:56:38;;;;;;;;;;;;;;;11.02;41.43;100320.52;134183;1297;23107;-79
2023/03/29 13:59:49;;;;;;;;;;;;;;;10.99;41.25;100314.64;134332;1296;23349;-79
2023/03/29 14:03:00;;;;;;;;;;;;;;;10.92;41.00;100317.35;134304;1290;23107;-76
2023/03/29 14:06:03;;;;;;;;;;;;;;;10.78;41.28;100320.98;134332;1297;22615;-76
2023/03/29 14:09:06;;;;;;;;;;;;;;;10.76;41.82;100313.95;134267;1296;22589;-76
2023/03/29 14:12:08;;;;;;;;;;;;;;;10.82;41.81;100309.44;134278;1296;23175;-76
2023/03/29 14:15:20;;;;;;;;;;;;;;;10.71;41.49;100312.14;134327;1298;23282;-85
2023/03/29 14:18:22;;;;;;;;;;;;;;;10.60;41.81;100314.04;134310;1298;23012;-82
2023/03/29 14:21:23;;;;;;;;;;;;;;;10.69;41.09;100313.03;134116;1284;22455;-81
2023/03/29 14:24:33;;;;;;;;;;;;;;;10.76;40.74;100301.51;134333;1297;22503;-83
2023/03/29 14:27:37;;;;;;;;;;;;;;;10.82;40.94;100302.27;134200;1297;22468;-84
2023/03/29 14:30:44;;;;;;;;;;;;;;;10.92;41.42;100304.11;134127;1297;270343;-80
2023/03/29 14:33:55;;;;;;;;;;;;;;;10.88;41.07;100305.58;134104;1298;22461;-78
2023/03/29 14:36:57;;;;;;;;;;;;;;;10.71;41.29;100303.81;134012;1303;23231;-74
2023/03/29 14:39:58;;;;;;;;;;;;;;;10.68;41.54;100306.77;134315;1297;22499;-79
2023/03/29 14:43:04;;;;;;;;;;;;;;;10.75;41.54;100303.79;134158;1298;22439;-81
2023/03/29 14:46:08;;;;;;;;;;;;;;;10.82;41.25;100301.94;134320;1297;22489;-83
2023/03/29 14:49:13;;;;;;;;;;;;;;;10.85;40.80;100300.42;134180;1295;22446;-82
2023/03/29 14:52:15;;;;;;;;;;;;;;;10.81;41.32;100295.67;134307;1293;22440;-84
2023/03/29 14:55:18;;;;;;;;;;;;;;;10.73;41.11;100292.67;134101;1299;23726;-81
2023/03/29 14:58:23;;;;;;;;;;;;;;;10.56;41.08;100295.35;134350;1297;22497;-78
2023/03/29 15:01:26;;;;;;;;;;;;;;;10.36;41.01;100292.87;134193;1297;22470;-78
2023/03/29 15:04:34;;;;;;;;;;;;;;;10.18;41.37;100288.16;134345;1296;22460;-76
2023/03/29 15:07:42;;;;;;;;;;;;;;;10.04;41.59;100289.59;134310;1295;22437;-75
2023/03/29 15:10:42;;;;;;;;;;;;;;;9.89;41.45;100287.98;134290;1296;22661;-75
2023/03/29 15:13:56;;;;;;;;;;;;;;;;;;;;;
2023/03/29 15:17:24;;;;;;;;;;;;;;;9.69;41.22;100284.04;134315;1297;22980;-74
2023/03/29 15:20:26;;;;;;;;;;;;;;;9.63;41.61;100280.36;134169;1297;22458;-76
2023/03/29 15:23:33;;;;;;;;;;;;;;;9.68;41.81;100276.02;134293;1297;22551;-76
2023/03/29 15:26:36;;;;;;;;;;;;;;;9.71;41.85;100271.48;134301;1298;22452;-77
2023/03/29 15:29:40;;;;;;;;;;;;;;;9.79;42.01;100262.89;134139;1297;22456;-76
2023/03/29 15:32:41;;;;;;;;;;;;;;;9.91;42.24;100251.55;134308;1297;22512;-77
2023/03/29 15:35:44;;;;;;;;;;;;;;;10.00;42.24;100253.61;134279;1296;23761;-76
2023/03/29 15:38:48;;;;;;;;;;;;;;;10.10;42.51;100255.40;134281;1295;24012;-77
2023/03/29 15:41:50;;;;;;;;;;;;;;;10.16;42.38;100252.84;134190;1297;22449;-77
2023/03/29 15:44:52;;;;;;;;;;;;;;;10.21;42.31;100248.64;134162;1297;22590;-77
2023/03/29 15:47:52;;;;;;;;;;;;;;;10.20;42.56;100245.50;134091;1298;22943;-77
2023/03/29 15:50:53;;;;;;;;;;;;;;;10.18;42.54;100247.73;134304;1297;22434;-77
2023/03/29 15:53:54;;;;;;;;;;;;;;;10.08;42.19;100243.92;134282;1296;22459;-77
2023/03/29 15:56:58;;;;;;;;;;;;;;;9.93;42.41;100248.64;134154;1297;22524;-77
2023/03/29 16:00:06;;;;;;;;;;;;;;;9.83;42.53;100249.16;134163;1296;26130;-77
2023/03/29 16:03:14;;;;;;;;;;;;;;;9.76;42.84;100251.65;134285;1298;22455;-77
2023/03/29 16:06:20;;;;;;;;;;;;;;;9.69;43.10;100255.59;134117;1297;23137;-75
2023/03/29 16:09:21;;;;;;;;;;;;;;;9.61;42.68;100251.08;134287;1298;22444;-77
2023/03/29 16:12:22;;;;;;;;;;;;;;;9.58;42.85;100253.34;134277;1297;22550;-76
2023/03/29 16:15:23;;;;;;;;;;;;;;;9.59;42.72;100248.11;134283;1297;22448;-75
2023/03/29 16:18:24;;;;;;;;;;;;;;;9.52;42.73;100250.43;134184;1297;22547;-74
2023/03/29 16:21:26;;;;;;;;;;;;;;;9.37;43.01;100251.73;134321;1297;23142;-75
2023/03/29 16:24:28;;;;;;;;;;;;;;;9.21;43.04;100255.86;134277;1296;22451;-78
2023/03/29 16:27:30;;;;;;;;;;;;;;;9.04;43.00;100255.42;134267;1296;22469;-76
2023/03/29 16:30:30;;;;;;;;;;;;;;;8.85;43.38;100260.33;134314;1297;22464;-76
2023/03/29 16:33:31;;;;;;;;;;;;;;;8.68;43.65;100262.73;134314;1295;22430;-76
2023/03/29 16:36:34;;;;;;;;;;;;;;;8.56;44.17;100267.56;134295;1297;22476;-76
2023/03/29 16:39:36;;;;;;;;;;;;;;;8.42;44.56;100272.64;134270;1297;22430;-75
2023/03/29 16:42:37;;;;;;;;;;;;;;;8.29;45.07;100277.29;134255;1297;23130;-76
2023/03/29 16:45:38;;;;;;;;;;;;;;;8.16;45.40;100283.67;134274;1297;22490;-74
2023/03/29 16:48:39;;;;;;;;;;;;;;;8.04;45.88;100280.53;134287;1297;22461;-76
2023/03/29 16:51:40;;;;;;;;;;;;;;;7.93;46.12;100283.73;134340;1298;22443;-76
2023/03/29 16:54:41;;;;;;;;;;;;;;;7.84;46.34;100285.56;134266;1298;23192;-79
2023/03/29 16:57:42;;;;;;;;;;;;;;;7.78;46.43;100272.27;134293;1297;22523;-78
2023/03/29 17:01:10;;;;;;;;;;;;;;;7.71;46.77;100273.10;134281;1297;22830;-78
2023/03/29 17:04:11;;;;;;;;;;;;;;;7.64;47.13;100271.48;134199;1297;22454;-78
2023/03/29 17:07:14;;;;;;;;;;;;;;;7.56;47.29;100274.95;134282;1296;22551;-78
2023/03/29 17:10:35;;;;;;;;;;;;;;;7.52;47.32;100271.02;134275;1297;22563;-79
2023/03/29 17:13:39;;;;;;;;;;;;;;;7.48;47.65;100267.83;134248;1295;22487;-79
2023/03/29 17:16:40;;;;;;;;;;;;;;;7.44;47.67;100273.48;134192;1297;22661;-78
2023/03/29 17:19:41;;;;;;;;;;;;;;;7.39;48.00;100282.39;134306;1297;22477;-79
2023/03/29 17:22:42;;;;;;;;;;;;;;;7.34;48.24;100283.90;134270;1297;22558;-78
2023/03/29 17:25:45;;;;;;;;;;;;;;;7.30;48.45;100281.83;134275;1297;22478;-78
2023/03/29 17:28:46;;;;;;;;;;;;;;;7.26;48.54;100272.52;134270;1297;22540;-78
2023/03/29 17:31:47;;;;;;;;;;;;;;;7.23;48.52;100275.05;134249;1297;22438;-77
2023/03/29 17:34:58;;;;;;;;;;;;;;;7.21;48.67;100276.50;134197;1296;22504;-83